Time;durP1;ratioP1;P1;durP2;ratioP2;P2;SDS_P1;SDS_P2;PMS_P1;PMS_P2;Temp;Humidity;BMP_temperature;BMP_pressure;BME280_temperature;BME280_humidity;BME280_pressure;Samples;Min_cycle;Max_cycle;Signal;HPM_P1;HPM_P2
2023/07/31 00:00:03;;;;;;;;;;;;;;;15.46;100.00;101066.94;5060667;28;20382;-45
2023/07/31 00:02:29;;;;;;;;;;;;;;;15.47;100.00;101068.69;5061939;28;19924;-44
2023/07/31 00:04:54;;;;;;;;;;;;;;;15.48;100.00;101070.44;5061946;28;19924;-44
2023/07/31 00:07:19;;;;;;;;;;;;;;;15.46;100.00;101073.84;5059668;28;19924;-44
2023/07/31 00:09:44;;;;;;;;;;;;;;;15.47;100.00;101073.88;5059251;27;20039;-44
2023/07/31 00:12:09;;;;;;;;;;;;;;;15.45;100.00;101070.38;5057493;28;19977;-44
2023/07/31 00:14:35;;;;;;;;;;;;;;;15.46;100.00;101063.47;5060577;28;19944;-43
2023/07/31 00:17:00;;;;;;;;;;;;;;;15.46;100.00;101072.13;5056713;28;19928;-43
2023/07/31 00:19:26;;;;;;;;;;;;;;;15.47;100.00;101072.97;5043826;28;20032;-48
2023/07/31 00:21:51;;;;;;;;;;;;;;;15.45;100.00;101070.38;5062138;28;19925;-46
2023/07/31 00:24:16;;;;;;;;;;;;;;;15.44;100.00;101060.00;5064441;28;19924;-44
2023/07/31 00:26:41;;;;;;;;;;;;;;;15.44;100.00;101068.66;5059551;28;20298;-43
2023/07/31 00:29:07;;;;;;;;;;;;;;;15.42;100.00;101070.38;5039726;28;19921;-45
2023/07/31 00:31:32;;;;;;;;;;;;;;;15.43;100.00;101066.91;5062385;28;20057;-44
2023/07/31 00:33:57;;;;;;;;;;;;;;;15.41;100.00;101062.56;5062454;28;19924;-43
2023/07/31 00:36:22;;;;;;;;;;;;;;;15.40;100.00;101060.81;5062420;28;19925;-44
2023/07/31 00:38:49;;;;;;;;;;;;;;;15.39;100.00;101059.94;5062315;28;19924;-44
2023/07/31 00:41:14;;;;;;;;;;;;;;;15.44;100.00;101060.00;5059417;28;19924;-44
2023/07/31 00:43:39;;;;;;;;;;;;;;;15.39;100.00;101065.13;5062961;28;19924;-43
2023/07/31 00:46:04;;;;;;;;;;;;;;;15.39;100.00;101059.94;5057667;28;20540;-44
2023/07/31 00:48:30;;;;;;;;;;;;;;;15.45;100.00;101053.97;5061223;27;19917;-44
2023/07/31 00:50:55;;;;;;;;;;;;;;;15.41;100.00;101049.59;5061797;27;19928;-44
2023/07/31 00:53:21;;;;;;;;;;;;;;;15.40;100.00;101046.13;5059523;28;19924;-45
2023/07/31 00:55:46;;;;;;;;;;;;;;;15.41;100.00;101047.91;5039359;27;20447;-44
2023/07/31 00:58:11;;;;;;;;;;;;;;;15.37;100.00;101046.13;5060736;28;20754;-44
2023/07/31 01:00:36;;;;;;;;;;;;;;;15.39;100.00;101044.41;5057553;28;19933;-45
2023/07/31 01:03:02;;;;;;;;;;;;;;;15.38;100.00;101032.31;5055436;28;19923;-44
2023/07/31 01:05:47;;;;;;;;;;;;;;;15.38;100.00;101041.81;5060069;28;19967;-43
2023/07/31 01:08:18;;;;;;;;;;;;;;;15.37;100.00;101034.88;5030378;28;19927;-44
2023/07/31 01:10:50;;;;;;;;;;;;;;;15.35;100.00;101036.56;5060559;28;19925;-44
2023/07/31 01:13:17;;;;;;;;;;;;;;;15.35;100.00;101041.75;5061444;28;20354;-44
2023/07/31 01:15:42;;;;;;;;;;;;;;;15.35;100.00;101039.16;5063408;28;20450;-44
2023/07/31 01:18:07;;;;;;;;;;;;;;;15.38;100.00;101039.22;5057703;27;19925;-44
2023/07/31 01:20:33;;;;;;;;;;;;;;;15.36;100.00;101035.75;5059354;28;20293;-43
2023/07/31 01:23:04;;;;;;;;;;;;;;;15.37;100.00;101035.75;5059616;27;19916;-45
2023/07/31 01:25:48;;;;;;;;;;;;;;;15.37;100.00;101045.25;5057200;27;19922;-44
2023/07/31 01:28:18;;;;;;;;;;;;;;;15.34;100.00;101038.28;5060163;28;19921;-47
2023/07/31 01:30:47;;;;;;;;;;;;;;;15.40;100.00;101053.91;5057047;28;19929;-44
2023/07/31 01:33:13;;;;;;;;;;;;;;;15.35;100.00;101040.06;5057910;28;19931;-45
2023/07/31 01:35:39;;;;;;;;;;;;;;;15.34;100.00;101037.44;5061260;28;20003;-44
2023/07/31 01:38:05;;;;;;;;;;;;;;;15.34;100.00;101037.44;5059958;28;19916;-45
2023/07/31 01:40:30;;;;;;;;;;;;;;;15.34;100.00;101043.47;5063953;28;19959;-45
2023/07/31 01:42:55;;;;;;;;;;;;;;;15.27;100.00;101036.50;5054119;28;19921;-44
2023/07/31 01:45:21;;;;;;;;;;;;;;;15.27;100.00;101039.09;5057869;27;19931;-44
2023/07/31 01:47:46;;;;;;;;;;;;;;;15.25;100.00;101036.47;5055364;28;20382;-44
2023/07/31 01:50:11;;;;;;;;;;;;;;;15.24;100.00;101033.88;5059268;28;19993;-43
2023/07/31 01:52:36;;;;;;;;;;;;;;;15.26;100.00;101037.34;5055871;27;19925;-44
2023/07/31 01:55:02;;;;;;;;;;;;;;;15.27;100.00;101026.13;5056826;27;19921;-45
2023/07/31 01:57:27;;;;;;;;;;;;;;;15.27;100.00;101026.13;5053384;28;20398;-44
2023/07/31 01:59:53;;;;;;;;;;;;;;;15.27;100.00;101026.13;5054832;28;19933;-44
2023/07/31 02:02:18;;;;;;;;;;;;;;;15.24;100.00;101024.38;5057556;28;20019;-43
2023/07/31 02:04:44;;;;;;;;;;;;;;;15.27;100.00;101023.53;5060623;28;19967;-43
2023/07/31 02:07:09;;;;;;;;;;;;;;;15.25;100.00;101017.47;5043578;28;20015;-44
2023/07/31 02:09:34;;;;;;;;;;;;;;;15.25;100.00;101015.75;5059390;28;19920;-44
2023/07/31 02:11:59;;;;;;;;;;;;;;;15.24;100.00;101015.75;5056733;28;19983;-43
2023/07/31 02:14:25;;;;;;;;;;;;;;;15.27;100.00;101011.44;5057586;28;19928;-43
2023/07/31 02:16:50;;;;;;;;;;;;;;;15.26;100.00;101001.06;5061985;28;19921;-43
2023/07/31 02:19:15;;;;;;;;;;;;;;;15.24;100.00;100997.63;5063478;27;19921;-43
2023/07/31 02:21:40;;;;;;;;;;;;;;;15.21;100.00;101007.94;5059333;28;19921;-44
2023/07/31 02:24:06;;;;;;;;;;;;;;;15.19;100.00;100999.28;5037443;28;19924;-46
2023/07/31 02:26:31;;;;;;;;;;;;;;;15.14;100.00;100999.22;5060951;27;19921;-45
2023/07/31 02:28:56;;;;;;;;;;;;;;;15.12;100.00;100990.56;5048932;27;20437;-45
2023/07/31 02:31:21;;;;;;;;;;;;;;;15.15;100.00;100993.19;5059031;28;20355;-44
2023/07/31 02:33:47;;;;;;;;;;;;;;;15.17;100.00;100994.09;5058414;28;19932;-44
2023/07/31 02:36:12;;;;;;;;;;;;;;;15.15;100.00;100988.00;5057328;28;19925;-47
2023/07/31 02:38:37;;;;;;;;;;;;;;;15.16;100.00;100989.72;5051543;27;20692;-44
2023/07/31 02:41:02;;;;;;;;;;;;;;;15.16;100.00;100987.13;5037774;28;19921;-46
2023/07/31 02:43:28;;;;;;;;;;;;;;;15.23;100.00;100998.47;5056284;28;20022;-43
2023/07/31 02:45:53;;;;;;;;;;;;;;;15.18;100.00;100985.47;5059783;28;20326;-45
2023/07/31 02:48:18;;;;;;;;;;;;;;;15.19;100.00;100986.31;5055315;28;19921;-48
2023/07/31 02:50:44;;;;;;;;;;;;;;;15.16;100.00;100981.09;5058802;28;19928;-46
2023/07/31 02:53:09;;;;;;;;;;;;;;;15.20;100.00;100981.16;5055319;27;19932;-47
2023/07/31 02:55:34;;;;;;;;;;;;;;;15.21;100.00;100976.84;5058866;28;19920;-46
2023/07/31 02:58:00;;;;;;;;;;;;;;;15.23;100.00;100975.16;5056954;27;19928;-47
2023/07/31 03:00:25;;;;;;;;;;;;;;;15.18;100.00;100976.81;5057739;28;19920;-47
2023/07/31 03:02:50;;;;;;;;;;;;;;;15.16;100.00;100974.19;5058174;28;19935;-43
2023/07/31 03:05:15;;;;;;;;;;;;;;;15.16;100.00;100971.59;5035222;28;19939;-44
2023/07/31 03:07:41;;;;;;;;;;;;;;;15.18;100.00;100977.69;5058416;28;20298;-45
2023/07/31 03:10:06;;;;;;;;;;;;;;;15.15;100.00;100976.78;5056417;28;19929;-45
2023/07/31 03:12:31;;;;;;;;;;;;;;;15.14;100.00;100970.72;5058574;28;19925;-46
2023/07/31 03:14:57;;;;;;;;;;;;;;;15.14;100.00;100980.22;5055709;27;19921;-45
2023/07/31 03:17:22;;;;;;;;;;;;;;;15.12;100.00;100975.03;5043428;28;19951;-44
2023/07/31 03:19:47;;;;;;;;;;;;;;;15.13;100.00;100978.50;5060006;28;20327;-43
2023/07/31 03:22:12;;;;;;;;;;;;;;;15.11;100.00;100969.84;5040381;28;19921;-44
2023/07/31 03:24:38;;;;;;;;;;;;;;;15.16;100.00;100981.97;5063142;28;19916;-43
2023/07/31 03:27:03;;;;;;;;;;;;;;;15.14;100.00;100970.72;5054153;28;20450;-44
2023/07/31 03:29:28;;;;;;;;;;;;;;;15.15;100.00;100967.28;5055722;28;19917;-45
2023/07/31 03:31:54;;;;;;;;;;;;;;;15.13;100.00;100965.53;5054294;28;19948;-44
2023/07/31 03:34:19;;;;;;;;;;;;;;;15.12;100.00;100963.81;5041481;28;20435;-46
2023/07/31 03:36:44;;;;;;;;;;;;;;;15.08;100.00;100957.72;5060070;28;20335;-43
2023/07/31 03:39:09;;;;;;;;;;;;;;;15.11;100.00;100954.31;5062036;28;19921;-44
2023/07/31 03:41:35;;;;;;;;;;;;;;;15.09;100.00;100955.97;5054218;28;19921;-44
2023/07/31 03:44:00;;;;;;;;;;;;;;;15.08;100.00;100949.94;5059389;28;19921;-44
2023/07/31 03:46:25;;;;;;;;;;;;;;;15.06;100.00;100945.59;5057408;28;19925;-44
2023/07/31 03:48:50;;;;;;;;;;;;;;;15.10;100.00;100943.03;5053759;28;20019;-44
2023/07/31 03:51:17;;;;;;;;;;;;;;;15.10;100.00;100930.09;5055357;28;19969;-44
2023/07/31 03:53:42;;;;;;;;;;;;;;;15.09;100.00;100941.31;5057264;28;19931;-44
2023/07/31 03:56:07;;;;;;;;;;;;;;;15.08;100.00;100936.13;5057820;28;19925;-44
2023/07/31 03:58:33;;;;;;;;;;;;;;;15.09;100.00;100932.69;5053782;28;19928;-44
2023/07/31 04:00:58;;;;;;;;;;;;;;;15.08;100.00;100931.81;5058908;28;20007;-45
2023/07/31 04:03:23;;;;;;;;;;;;;;;15.10;100.00;100924.06;5057968;28;20326;-45
2023/07/31 04:05:48;;;;;;;;;;;;;;;15.11;100.00;100913.72;5058261;28;21864;-42
2023/07/31 04:08:13;;;;;;;;;;;;;;;15.15;100.00;100917.19;5054967;28;19959;-44
2023/07/31 04:10:39;;;;;;;;;;;;;;;15.17;100.00;100918.09;5057991;28;19921;-44
2023/07/31 04:13:04;;;;;;;;;;;;;;;15.18;100.00;100909.47;5039807;28;19921;-44
2023/07/31 04:15:29;;;;;;;;;;;;;;;15.22;100.00;100911.22;5052789;28;19925;-44
2023/07/31 04:17:54;;;;;;;;;;;;;;;15.26;100.00;100915.59;5055253;28;20056;-44
2023/07/31 04:20:20;;;;;;;;;;;;;;;15.26;100.00;100908.69;5058890;28;19971;-44
2023/07/31 04:22:45;;;;;;;;;;;;;;;15.29;100.00;100908.72;5062174;28;19928;-44
2023/07/31 04:25:10;;;;;;;;;;;;;;;15.29;100.00;100913.03;5058261;28;19916;-45
2023/07/31 04:27:37;;;;;;;;;;;;;;;15.34;100.00;100906.16;5062891;28;20417;-44
2023/07/31 04:30:03;;;;;;;;;;;;;;;15.40;100.00;100911.41;5061587;28;20000;-46
2023/07/31 04:32:29;;;;;;;;;;;;;;;15.40;100.00;100905.34;5060649;28;19929;-45
2023/07/31 04:34:54;;;;;;;;;;;;;;;15.40;100.00;100907.94;5062110;28;19925;-45
2023/07/31 04:37:20;;;;;;;;;;;;;;;15.41;100.00;100910.56;5060950;27;19969;-44
2023/07/31 04:39:45;;;;;;;;;;;;;;;15.45;100.00;100899.34;5063973;28;19926;-45
2023/07/31 04:42:10;;;;;;;;;;;;;;;15.46;100.00;100901.09;5040720;28;19932;-46
2023/07/31 04:44:35;;;;;;;;;;;;;;;15.46;100.00;100895.03;5061713;28;19921;-44
2023/07/31 04:47:01;;;;;;;;;;;;;;;15.48;100.00;100896.81;5063209;28;20389;-44
2023/07/31 04:49:27;;;;;;;;;;;;;;;15.46;100.00;100892.44;5056632;28;19925;-44
2023/07/31 04:51:52;;;;;;;;;;;;;;;15.45;100.00;100896.75;5062406;28;19928;-45
2023/07/31 04:54:17;;;;;;;;;;;;;;;15.43;100.00;100884.66;5061859;28;20357;-46
2023/07/31 04:56:42;;;;;;;;;;;;;;;15.42;100.00;100888.97;5059250;28;20323;-45
2023/07/31 04:59:08;;;;;;;;;;;;;;;15.44;100.00;100879.50;5064706;28;20327;-47
2023/07/31 05:01:33;;;;;;;;;;;;;;;15.43;100.00;100877.75;5057953;28;19928;-51
2023/07/31 05:03:58;;;;;;;;;;;;;;;15.49;100.00;100882.13;5060813;28;19923;-48
2023/07/31 05:06:24;;;;;;;;;;;;;;;15.49;100.00;100869.16;5059086;28;20437;-47
2023/07/31 05:08:49;;;;;;;;;;;;;;;15.51;100.00;100876.09;5059986;27;20395;-48
2023/07/31 05:11:14;;;;;;;;;;;;;;;15.52;100.00;100875.22;5055446;28;19996;-45
2023/07/31 05:13:39;;;;;;;;;;;;;;;15.56;100.00;100863.16;5042512;28;19924;-44
2023/07/31 05:16:05;;;;;;;;;;;;;;;15.55;100.00;100864.91;5063433;28;19928;-44
2023/07/31 05:18:30;;;;;;;;;;;;;;;15.56;100.00;100856.25;5059280;27;19916;-43
2023/07/31 05:20:55;;;;;;;;;;;;;;;15.55;100.00;100864.03;5062107;28;21331;-43
2023/07/31 05:23:20;;;;;;;;;;;;;;;15.60;100.00;100869.25;5061476;28;19920;-46
2023/07/31 05:25:46;;;;;;;;;;;;;;;15.56;100.00;100856.25;5055360;28;20010;-43
2023/07/31 05:28:11;;;;;;;;;;;;;;;15.56;100.00;100850.22;5059536;28;20374;-42
2023/07/31 05:30:37;;;;;;;;;;;;;;;15.59;100.00;100854.53;5055316;28;21841;-43
2023/07/31 05:33:02;;;;;;;;;;;;;;;15.56;100.00;100856.25;5063851;27;19942;-44
2023/07/31 05:35:27;;;;;;;;;;;;;;;15.57;100.00;100852.81;5066010;28;19920;-45
2023/07/31 05:37:53;;;;;;;;;;;;;;;15.60;100.00;100851.13;5060141;28;19952;-44
2023/07/31 05:40:18;;;;;;;;;;;;;;;15.59;100.00;100842.44;5061540;28;20012;-45
2023/07/31 05:42:43;;;;;;;;;;;;;;;15.61;100.00;100850.25;5057782;28;20392;-44
2023/07/31 05:45:09;;;;;;;;;;;;;;;15.58;100.00;100848.50;5062099;28;19917;-44
2023/07/31 05:47:34;;;;;;;;;;;;;;;15.56;100.00;100851.06;5063089;28;20036;-44
2023/07/31 05:50:00;;;;;;;;;;;;;;;15.54;100.00;100841.56;5058636;28;19928;-47
2023/07/31 05:52:25;;;;;;;;;;;;;;;15.55;100.00;100830.34;5024264;28;19925;-46
2023/07/31 05:54:50;;;;;;;;;;;;;;;15.55;100.00;100831.22;5064410;28;19921;-44
2023/07/31 05:57:15;;;;;;;;;;;;;;;15.52;100.00;100827.72;5062169;27;19920;-47
2023/07/31 05:59:41;;;;;;;;;;;;;;;15.51;100.00;100832.03;5071233;27;20454;-45
2023/07/31 06:02:06;;;;;;;;;;;;;;;15.47;100.00;100825.09;5056961;28;20465;-43
2023/07/31 06:04:32;;;;;;;;;;;;;;;15.51;100.00;100831.16;5059573;28;19973;-45
2023/07/31 06:06:57;;;;;;;;;;;;;;;15.46;100.00;100825.06;5038405;28;19964;-45
2023/07/31 06:09:22;;;;;;;;;;;;;;;15.49;100.00;100825.13;5058378;28;19922;-45
2023/07/31 06:11:47;;;;;;;;;;;;;;;15.49;100.00;100817.34;5053411;28;19928;-43
2023/07/31 06:14:13;;;;;;;;;;;;;;;15.51;100.00;100826.84;5056798;28;20357;-47
2023/07/31 06:16:38;;;;;;;;;;;;;;;15.52;100.00;100818.22;5062606;28;19953;-44
2023/07/31 06:19:03;;;;;;;;;;;;;;;15.51;100.00;100816.47;5060094;28;20019;-46
2023/07/31 06:21:29;;;;;;;;;;;;;;;15.50;100.00;100812.16;5054920;28;19986;-45
2023/07/31 06:23:55;;;;;;;;;;;;;;;15.51;100.00;100819.06;5059157;28;20118;-46
2023/07/31 06:26:20;;;;;;;;;;;;;;;15.54;100.00;100816.50;5057893;28;20390;-45
2023/07/31 06:28:45;;;;;;;;;;;;;;;15.53;100.00;100814.78;5030678;28;20013;-47
2023/07/31 06:31:10;;;;;;;;;;;;;;;15.55;100.00;100812.19;5068035;27;19936;-44
2023/07/31 06:33:36;;;;;;;;;;;;;;;15.55;100.00;100818.25;5063877;28;19972;-44
2023/07/31 06:36:01;;;;;;;;;;;;;;;15.59;100.00;100810.47;5054493;28;20447;-46
2023/07/31 06:38:27;;;;;;;;;;;;;;;15.59;100.00;100815.66;5051886;27;19917;-45
2023/07/31 06:40:52;;;;;;;;;;;;;;;15.60;100.00;100814.84;5051657;28;19913;-44
2023/07/31 06:43:18;;;;;;;;;;;;;;;15.59;100.00;100807.88;5056964;28;19917;-45
2023/07/31 06:45:43;;;;;;;;;;;;;;;15.59;100.00;100794.94;5064875;28;20259;-46
2023/07/31 06:48:08;;;;;;;;;;;;;;;15.60;100.00;100794.09;5064985;28;19971;-44
2023/07/31 06:50:34;;;;;;;;;;;;;;;15.60;100.00;100789.78;5066459;27;20370;-46
2023/07/31 06:52:59;;;;;;;;;;;;;;;15.63;100.00;100791.53;5062575;28;20019;-44
2023/07/31 06:55:25;;;;;;;;;;;;;;;15.66;100.00;100791.56;5058741;28;19927;-45
2023/07/31 06:57:51;;;;;;;;;;;;;;;15.65;100.00;100789.81;5061137;28;19927;-45
2023/07/31 07:00:17;;;;;;;;;;;;;;;15.65;100.00;100793.31;5063327;28;19920;-45
2023/07/31 07:02:42;;;;;;;;;;;;;;;15.67;100.00;100777.75;5060882;28;19928;-45
2023/07/31 07:05:08;;;;;;;;;;;;;;;15.67;100.00;100785.53;5053165;28;20294;-44
2023/07/31 07:07:33;;;;;;;;;;;;;;;15.68;100.00;100787.25;5055395;28;19959;-44
2023/07/31 07:10:01;;;;;;;;;;;;;;;15.70;100.00;100778.63;5055945;28;20370;-44
2023/07/31 07:12:30;;;;;;;;;;;;;;;15.74;100.00;100777.78;5060119;28;19932;-49
2023/07/31 07:14:55;;;;;;;;;;;;;;;15.79;100.00;100780.41;5059825;28;19920;-49
2023/07/31 07:17:20;;;;;;;;;;;;;;;15.79;100.00;100770.03;5060456;28;19921;-48
2023/07/31 07:19:47;;;;;;;;;;;;;;;15.84;100.00;100773.53;5054122;28;19920;-48
2023/07/31 07:22:12;;;;;;;;;;;;;;;15.84;100.00;100765.75;5057238;28;19956;-47
2023/07/31 07:24:38;;;;;;;;;;;;;;;15.86;100.00;100769.22;5056371;27;19955;-47
2023/07/31 07:27:03;;;;;;;;;;;;;;;15.90;100.00;100772.69;5064118;27;19923;-47
2023/07/31 07:29:28;;;;;;;;;;;;;;;15.91;100.00;100769.25;5062018;28;19945;-51
2023/07/31 07:31:54;;;;;;;;;;;;;;;15.93;100.00;100765.78;5059729;28;19920;-51
2023/07/31 07:34:19;;;;;;;;;;;;;;;15.93;100.00;100770.09;5052291;28;19966;-48
2023/07/31 07:36:44;;;;;;;;;;;;;;;15.94;100.00;100774.41;5058636;28;19963;-48
2023/07/31 07:39:10;;;;;;;;;;;;;;;15.94;100.00;100775.28;5059117;28;19920;-50
2023/07/31 07:41:36;;;;;;;;;;;;;;;15.95;100.00;100771.81;5057410;28;19965;-50
2023/07/31 07:44:01;;;;;;;;;;;;;;;15.96;100.00;100772.72;5058150;28;19928;-46
2023/07/31 07:46:26;;;;;;;;;;;;;;;15.92;100.00;100773.56;5062920;28;19917;-47
2023/07/31 07:48:52;;;;;;;;;;;;;;;15.91;100.00;100767.50;5060336;28;20353;-48
2023/07/31 07:51:17;;;;;;;;;;;;;;;15.90;100.00;100765.78;5059141;28;19924;-47
2023/07/31 07:53:42;;;;;;;;;;;;;;;15.90;100.00;100767.50;5046976;28;20045;-51
2023/07/31 07:56:07;;;;;;;;;;;;;;;15.89;100.00;100771.78;5058344;27;19967;-47
2023/07/31 07:58:32;;;;;;;;;;;;;;;15.90;100.00;100772.69;5060561;28;19917;-48
2023/07/31 08:00:58;;;;;;;;;;;;;;;15.94;100.00;100767.50;5058766;28;20056;-49
2023/07/31 08:03:23;;;;;;;;;;;;;;;15.98;100.00;100765.81;5063445;28;19921;-47
2023/07/31 08:05:48;;;;;;;;;;;;;;;16.01;100.00;100771.84;5067077;27;19920;-48
2023/07/31 08:08:14;;;;;;;;;;;;;;;16.00;100.00;100758.88;5071908;27;19921;-47
2023/07/31 08:10:39;;;;;;;;;;;;;;;16.00;100.00;100758.88;5044177;28;20066;-49
2023/07/31 08:13:05;;;;;;;;;;;;;;;16.03;100.00;100757.19;5056815;28;20025;-48
2023/07/31 08:15:30;;;;;;;;;;;;;;;16.06;100.00;100762.38;5061977;28;19925;-50
2023/07/31 08:17:55;;;;;;;;;;;;;;;16.02;100.00;100765.84;5060908;28;19920;-47
2023/07/31 08:20:20;;;;;;;;;;;;;;;16.06;100.00;100754.59;5058891;28;19912;-51
2023/07/31 08:22:46;;;;;;;;;;;;;;;16.09;100.00;100761.53;5058204;28;20374;-51
2023/07/31 08:25:11;;;;;;;;;;;;;;;16.13;100.00;100755.47;5064056;28;20340;-49
2023/07/31 08:27:36;;;;;;;;;;;;;;;16.13;100.00;100754.63;5061714;27;19920;-51
2023/07/31 08:30:02;;;;;;;;;;;;;;;16.16;100.00;100758.09;5057575;28;19925;-51
2023/07/31 08:32:27;;;;;;;;;;;;;;;16.17;100.00;100758.97;5061275;28;19935;-52
2023/07/31 08:34:52;;;;;;;;;;;;;;;16.18;100.00;100752.91;5058907;28;20232;-51
2023/07/31 08:37:18;;;;;;;;;;;;;;;16.17;100.00;100756.38;5056230;28;19943;-49
2023/07/31 08:39:43;;;;;;;;;;;;;;;16.18;100.00;100752.91;5057556;28;19970;-48
2023/07/31 08:42:09;;;;;;;;;;;;;;;16.18;100.00;100752.91;5057680;28;19921;-48
2023/07/31 08:44:34;;;;;;;;;;;;;;;16.15;100.00;100752.91;5058761;28;19920;-48
2023/07/31 08:47:00;;;;;;;;;;;;;;;16.14;100.00;100753.75;5057536;28;19916;-50
2023/07/31 08:49:26;;;;;;;;;;;;;;;16.11;100.00;100751.16;5057569;28;19977;-48
2023/07/31 08:51:52;;;;;;;;;;;;;;;16.14;100.00;100758.94;5054999;28;19924;-46
2023/07/31 08:54:17;;;;;;;;;;;;;;;16.13;100.00;100747.69;5057801;28;20414;-47
2023/07/31 08:56:43;;;;;;;;;;;;;;;16.16;100.00;100750.31;5059239;28;19960;-44
2023/07/31 08:59:09;;;;;;;;;;;;;;;16.19;100.00;100755.50;5053448;28;20291;-45
2023/07/31 09:01:40;;;;;;;;;;;;;;;16.19;100.00;100755.50;5054607;28;19932;-46
2023/07/31 09:04:06;;;;;;;;;;;;;;;16.20;100.00;100753.78;5049005;28;19917;-46
2023/07/31 09:06:32;;;;;;;;;;;;;;;16.21;100.00;100745.16;5050831;27;20382;-45
2023/07/31 09:08:57;;;;;;;;;;;;;;;16.19;100.00;100741.66;5045416;27;19963;-45
2023/07/31 09:11:24;;;;;;;;;;;;;;;16.19;100.00;100744.25;5045025;28;19932;-45
2023/07/31 09:13:49;;;;;;;;;;;;;;;16.17;100.00;100741.66;5056411;28;19925;-46
2023/07/31 09:16:14;;;;;;;;;;;;;;;16.17;100.00;100749.44;5061151;28;19938;-44
2023/07/31 09:18:54;;;;;;;;;;;;;;;16.20;100.00;100751.16;5058365;28;19928;-45
2023/07/31 09:21:19;;;;;;;;;;;;;;;16.21;100.00;100750.34;5058542;28;20351;-43
2023/07/31 09:23:45;;;;;;;;;;;;;;;16.24;100.00;100751.19;5054911;28;19921;-42
2023/07/31 09:26:11;;;;;;;;;;;;;;;16.28;100.00;100750.34;5054602;28;21203;-43
2023/07/31 09:28:36;;;;;;;;;;;;;;;16.34;100.00;100745.19;5053470;28;20378;-45
2023/07/31 09:31:01;;;;;;;;;;;;;;;16.41;100.00;100734.81;5049422;28;19935;-43
2023/07/31 09:33:27;;;;;;;;;;;;;;;16.46;100.00;100735.69;5053835;28;19936;-43
2023/07/31 09:35:52;;;;;;;;;;;;;;;16.53;100.00;100727.91;5052547;28;19924;-43
2023/07/31 09:38:17;;;;;;;;;;;;;;;16.61;100.00;100731.38;5036464;28;19944;-44
2023/07/31 09:40:44;;;;;;;;;;;;;;;16.68;100.00;100723.59;5053371;28;19973;-44
2023/07/31 09:43:11;;;;;;;;;;;;;;;16.75;100.00;100728.84;5053313;28;19965;-44
2023/07/31 09:45:37;;;;;;;;;;;;;;;16.82;100.00;100725.38;5053131;28;19924;-43
2023/07/31 09:48:03;;;;;;;;;;;;;;;16.86;100.00;100724.50;5052743;28;19929;-43
2023/07/31 09:50:29;;;;;;;;;;;;;;;16.96;100.00;100724.50;5054443;28;20025;-45
2023/07/31 09:52:54;;;;;;;;;;;;;;;16.95;100.00;100726.25;5060584;27;19928;-42
2023/07/31 09:55:20;;;;;;;;;;;;;;;16.92;100.00;100726.22;5053028;28;20370;-42
2023/07/31 09:57:46;;;;;;;;;;;;;;;16.95;100.00;100730.56;5055505;28;19924;-43
2023/07/31 10:00:12;;;;;;;;;;;;;;;17.00;100.00;100724.53;5058365;28;19923;-46
2023/07/31 10:02:38;;;;;;;;;;;;;;;17.08;100.00;100724.50;5056311;28;20354;-43
2023/07/31 10:05:04;;;;;;;;;;;;;;;17.13;100.00;100717.56;5054791;28;19921;-45
2023/07/31 10:07:52;;;;;;;;;;;;;;;17.11;100.00;100717.59;5059544;28;20038;-45
2023/07/31 10:10:20;;;;;;;;;;;;;;;17.11;100.00;100715.00;5057238;27;19925;-46
2023/07/31 10:12:45;;;;;;;;;;;;;;;17.18;100.00;100723.63;5052267;28;20012;-42
2023/07/31 10:15:11;;;;;;;;;;;;;;;17.22;100.00;100712.34;5051891;27;20019;-44
2023/07/31 10:17:37;;;;;;;;;;;;;;;17.19;100.00;100725.38;5053520;28;19960;-43
2023/07/31 10:20:04;;;;;;;;;;;;;;;17.23;100.00;100723.59;5051369;27;20011;-45
2023/07/31 10:22:30;;;;;;;;;;;;;;;17.30;100.00;100709.75;5054155;28;19920;-43
2023/07/31 10:24:57;;;;;;;;;;;;;;;17.45;100.00;100712.31;5058092;28;19924;-43
2023/07/31 10:27:22;;;;;;;;;;;;;;;17.52;100.00;100715.75;5057467;27;20291;-43
2023/07/31 10:29:49;;;;;;;;;;;;;;;17.56;100.00;100714.91;5062534;27;19931;-43
2023/07/31 10:32:15;;;;;;;;;;;;;;;17.57;100.00;100714.03;5055908;28;19928;-42
2023/07/31 10:34:41;;;;;;;;;;;;;;;17.53;100.00;100714.88;5056475;28;20359;-42
2023/07/31 10:37:22;;;;;;;;;;;;;;;17.52;100.00;100711.41;5039115;28;19916;-42
2023/07/31 10:40:05;;;;;;;;;;;;;;;17.57;100.00;100714.88;5039399;27;20502;-46
2023/07/31 10:42:35;;;;;;;;;;;;;;;17.65;100.00;100714.84;5053702;28;19916;-42
2023/07/31 10:45:03;;;;;;;;;;;;;;;17.78;100.00;100719.19;5055647;28;19924;-45
2023/07/31 10:47:28;;;;;;;;;;;;;;;17.80;100.00;100719.19;5048771;28;19927;-43
2023/07/31 10:50:12;;;;;;;;;;;;;;;17.80;100.00;100721.78;5032843;28;19920;-45
2023/07/31 10:52:37;;;;;;;;;;;;;;;17.80;100.00;100721.78;5050831;28;20287;-43
2023/07/31 10:55:14;;;;;;;;;;;;;;;17.77;100.00;100722.63;5059011;28;19928;-45
2023/07/31 10:57:43;;;;;;;;;;;;;;;17.73;100.00;100714.88;5029712;28;20391;-44
2023/07/31 11:00:22;;;;;;;;;;;;;;;17.71;100.00;100712.22;5051471;28;19931;-45
2023/07/31 11:02:58;;;;;;;;;;;;;;;17.77;100.00;100712.22;5054177;28;19999;-46
2023/07/31 11:05:40;;;;;;;;;;;;;;;17.77;100.00;100706.16;5029723;28;20294;-44
2023/07/31 11:08:16;;;;;;;;;;;;;;;17.83;100.00;100707.00;5051952;28;19924;-44
2023/07/31 11:10:42;;;;;;;;;;;;;;;17.83;100.00;100708.75;5053225;28;20428;-44
2023/07/31 11:13:07;;;;;;;;;;;;;;;17.88;100.00;100701.78;5050854;28;19924;-45
2023/07/31 11:15:32;;;;;;;;;;;;;;;17.98;100.00;100695.69;5049696;28;20396;-44
2023/07/31 11:17:58;;;;;;;;;;;;;;;18.09;100.00;100703.44;5052837;28;19920;-43
2023/07/31 11:20:26;;;;;;;;;;;;;;;18.18;100.00;100703.38;5031427;28;19963;-43
2023/07/31 11:22:52;;;;;;;;;;;;;;;18.27;100.00;100700.75;5056745;28;20339;-46
2023/07/31 11:25:17;;;;;;;;;;;;;;;18.35;100.00;100703.28;5056427;28;20389;-43
2023/07/31 11:27:43;;;;;;;;;;;;;;;18.37;100.00;100698.91;5055776;28;19931;-47
2023/07/31 11:30:09;;;;;;;;;;;;;;;18.37;100.00;100702.38;5063278;28;20271;-43
2023/07/31 11:32:36;;;;;;;;;;;;;;;18.35;100.00;100705.88;5063097;28;20393;-44
2023/07/31 11:35:01;;;;;;;;;;;;;;;18.34;100.00;100698.97;5066629;28;19968;-46
2023/07/31 11:37:47;;;;;;;;;;;;;;;18.26;100.00;100695.50;5061561;27;20426;-44
2023/07/31 11:40:12;;;;;;;;;;;;;;;18.15;100.00;100693.88;5063957;28;19999;-43
2023/07/31 11:42:37;;;;;;;;;;;;;;;18.04;100.00;100693.06;5056790;28;19966;-46
2023/07/31 11:45:07;;;;;;;;;;;;;;;18.17;100.00;100692.09;5065525;27;20421;-45
2023/07/31 11:47:34;;;;;;;;;;;;;;;18.12;100.00;100687.81;5060723;28;19913;-43
2023/07/31 11:50:00;;;;;;;;;;;;;;;18.07;100.00;100685.22;5054742;28;20020;-46
2023/07/31 11:52:26;;;;;;;;;;;;;;;18.23;100.00;100679.06;5042569;28;20031;-45
2023/07/31 11:54:51;;;;;;;;;;;;;;;18.26;100.00;100679.91;5051491;27;20023;-45
2023/07/31 11:57:18;;;;;;;;;;;;;;;18.33;100.00;100681.63;5062258;28;20286;-45
2023/07/31 11:59:43;;;;;;;;;;;;;;;18.39;100.00;100676.38;5060676;28;19916;-43
2023/07/31 12:02:09;;;;;;;;;;;;;;;18.55;100.00;100685.78;5054472;28;20022;-45
2023/07/31 12:04:35;;;;;;;;;;;;;;;18.51;100.00;100684.09;5063863;28;19917;-44
2023/07/31 12:07:00;;;;;;;;;;;;;;;18.45;100.00;100691.94;5057428;28;19925;-45
2023/07/31 12:09:26;;;;;;;;;;;;;;;18.46;100.00;100691.06;5061733;28;19924;-45
2023/07/31 12:11:51;;;;;;;;;;;;;;;18.33;100.00;100682.47;5061363;28;19917;-47
2023/07/31 12:14:22;;;;;;;;;;;;;;;18.36;100.00;100692.84;5059798;28;19972;-47
2023/07/31 12:16:47;;;;;;;;;;;;;;;18.42;100.00;100695.41;5064150;28;19920;-44
2023/07/31 12:19:12;;;;;;;;;;;;;;;18.43;100.00;100697.13;5063490;28;19969;-46
2023/07/31 12:21:37;;;;;;;;;;;;;;;18.52;100.00;100696.22;5060458;28;20404;-43